createdAt,value
2023-07-23T00:00:32.039Z,23.37
2023-07-23T00:03:20.608Z,23.33
2023-07-23T00:05:51.839Z,23.31
2023-07-23T00:08:20.164Z,23.28
2023-07-23T00:10:49.787Z,23.24
2023-07-23T00:13:18.329Z,23.21
2023-07-23T00:15:46.999Z,23.19
2023-07-23T00:18:15.682Z,23.13
2023-07-23T00:20:44.164Z,23.08
2023-07-23T00:23:12.877Z,23.05
2023-07-23T00:25:41.695Z,23.02
2023-07-23T00:28:10.131Z,22.96
2023-07-23T00:30:38.620Z,22.92
2023-07-23T00:33:07.422Z,22.86
2023-07-23T00:35:36.340Z,22.79
2023-07-23T00:38:05.915Z,22.74
2023-07-23T00:40:34.631Z,22.69
2023-07-23T00:43:03.089Z,22.63
2023-07-23T00:45:31.825Z,22.58
2023-07-23T00:48:01.235Z,22.53
2023-07-23T00:50:30.997Z,22.48
2023-07-23T00:53:00.149Z,22.42
2023-07-23T00:55:28.967Z,22.36
2023-07-23T00:57:57.678Z,22.31
2023-07-23T01:00:26.286Z,22.25
2023-07-23T01:02:55.008Z,22.18
2023-07-23T01:05:24.508Z,22.13
2023-07-23T01:07:53.424Z,22.11
2023-07-23T01:10:22.871Z,22.09
2023-07-23T01:12:53.061Z,22.08
2023-07-23T01:15:21.743Z,22.06
2023-07-23T01:17:52.273Z,22.06
2023-07-23T01:20:21.740Z,22.06
2023-07-23T01:22:50.461Z,22.05
2023-07-23T01:25:19.361Z,22.05
2023-07-23T01:27:47.952Z,22.05
2023-07-23T01:30:16.735Z,22.03
2023-07-23T01:32:47.186Z,22.03
2023-07-23T01:35:17.361Z,22.03
2023-07-23T01:37:50.568Z,22.01
2023-07-23T01:40:19.378Z,21.96
2023-07-23T01:42:47.910Z,21.95
2023-07-23T01:45:17.391Z,21.90
2023-07-23T01:47:46.087Z,21.81
2023-07-23T01:50:14.643Z,21.80
2023-07-23T01:52:43.272Z,21.78
2023-07-23T01:55:12.017Z,21.80
2023-07-23T01:57:40.589Z,21.82
2023-07-23T02:00:10.094Z,21.79
2023-07-23T02:02:44.630Z,21.76
2023-07-23T02:05:15.065Z,21.69
2023-07-23T02:07:43.326Z,21.67
2023-07-23T02:10:15.115Z,21.67
2023-07-23T02:12:43.574Z,21.72
2023-07-23T02:15:13.178Z,21.75
2023-07-23T02:17:41.747Z,21.79
2023-07-23T02:20:11.068Z,21.81
2023-07-23T02:22:39.554Z,21.84
2023-07-23T02:25:08.235Z,21.88
2023-07-23T02:27:38.520Z,21.91
2023-07-23T02:30:07.358Z,21.87
2023-07-23T02:32:35.974Z,21.85
2023-07-23T02:35:05.444Z,21.82
2023-07-23T02:37:33.774Z,21.77
2023-07-23T02:40:01.949Z,21.72
2023-07-23T02:42:30.707Z,21.62
2023-07-23T02:44:59.033Z,21.51
2023-07-23T02:47:27.484Z,21.43
2023-07-23T02:49:56.348Z,21.37
2023-07-23T02:52:25.026Z,21.34
2023-07-23T02:54:53.305Z,21.27
2023-07-23T02:57:22.053Z,21.24
2023-07-23T02:59:50.272Z,21.23
2023-07-23T03:02:18.666Z,21.16
2023-07-23T03:04:46.881Z,21.07
2023-07-23T03:07:15.426Z,21.01
2023-07-23T03:09:43.945Z,21.01
2023-07-23T03:12:12.176Z,21.02
2023-07-23T03:14:41.271Z,21.04
2023-07-23T03:17:09.588Z,21.03
2023-07-23T03:19:38.241Z,21.02
2023-07-23T03:22:06.921Z,21.01
2023-07-23T03:24:36.142Z,21.02
2023-07-23T03:27:04.915Z,21.05
2023-07-23T03:29:34.527Z,21.09
2023-07-23T03:32:03.349Z,21.16
2023-07-23T03:34:32.410Z,21.19
2023-07-23T03:37:00.997Z,21.22
2023-07-23T03:39:29.583Z,21.25
2023-07-23T03:41:58.166Z,21.29
2023-07-23T03:44:26.710Z,21.34
2023-07-23T03:47:05.424Z,21.31
2023-07-23T03:49:33.862Z,21.24
2023-07-23T03:52:03.460Z,21.25
2023-07-23T03:54:31.893Z,21.31
2023-07-23T03:57:00.838Z,21.40
2023-07-23T03:59:36.499Z,21.48
2023-07-23T04:02:05.722Z,21.59
2023-07-23T04:04:34.678Z,21.70
2023-07-23T04:07:03.365Z,21.79
2023-07-23T04:09:32.619Z,21.87
2023-07-23T04:12:01.534Z,21.90
2023-07-23T04:14:30.051Z,21.95
2023-07-23T04:16:58.839Z,21.98
2023-07-23T04:19:27.110Z,22.01
2023-07-23T04:21:57.759Z,22.03
2023-07-23T04:24:26.602Z,22.03
2023-07-23T04:26:55.220Z,22.01
2023-07-23T04:29:24.011Z,22.01
2023-07-23T04:31:52.599Z,22.02
2023-07-23T04:34:20.977Z,22.02
2023-07-23T04:36:53.301Z,22.03
2023-07-23T04:39:21.748Z,22.04
2023-07-23T04:41:50.725Z,22.03
2023-07-23T04:44:19.518Z,22.04
2023-07-23T04:46:48.098Z,22.08
2023-07-23T04:49:16.583Z,22.13
2023-07-23T04:51:44.958Z,22.20
2023-07-23T04:54:13.447Z,22.25
2023-07-23T04:56:42.030Z,22.31
2023-07-23T04:59:10.312Z,22.37
2023-07-23T05:01:38.947Z,22.40
2023-07-23T05:04:07.786Z,22.45
2023-07-23T05:06:36.273Z,22.51
2023-07-23T05:09:05.388Z,22.58
2023-07-23T05:11:33.955Z,22.66
2023-07-23T05:14:02.636Z,22.72
2023-07-23T05:16:31.033Z,22.78
2023-07-23T05:18:59.396Z,22.86
2023-07-23T05:21:28.424Z,22.93
2023-07-23T05:23:57.394Z,23.00
2023-07-23T05:26:25.973Z,23.06
2023-07-23T05:28:54.658Z,23.11
2023-07-23T05:31:23.357Z,23.18
2023-07-23T05:33:51.794Z,23.23
2023-07-23T05:36:20.417Z,23.30
2023-07-23T05:38:49.205Z,23.35
2023-07-23T05:41:17.486Z,23.42
2023-07-23T05:43:46.067Z,23.51
2023-07-23T05:46:15.000Z,23.60
2023-07-23T05:48:43.466Z,23.64
2023-07-23T05:51:12.038Z,23.63
2023-07-23T05:53:40.512Z,23.67
2023-07-23T05:56:08.898Z,23.68
2023-07-23T05:58:37.579Z,23.67
2023-07-23T06:01:06.120Z,23.71
2023-07-23T06:03:48.094Z,23.74
2023-07-23T06:06:23.358Z,23.74
2023-07-23T06:08:51.776Z,23.74
2023-07-23T06:11:20.017Z,23.76
2023-07-23T06:13:48.347Z,23.79
2023-07-23T06:16:17.075Z,24.05
2023-07-23T06:18:45.617Z,24.41
2023-07-23T06:21:14.102Z,24.75
2023-07-23T06:23:42.688Z,25.02
2023-07-23T06:26:12.171Z,25.14
2023-07-23T06:28:40.980Z,25.26
2023-07-23T06:31:09.689Z,25.44
2023-07-23T06:33:38.357Z,25.65
2023-07-23T06:36:06.839Z,25.88
2023-07-23T06:38:35.534Z,26.02
2023-07-23T06:41:04.217Z,26.25
2023-07-23T06:43:32.596Z,26.50
2023-07-23T06:46:01.078Z,26.64
2023-07-23T06:48:30.048Z,26.78
2023-07-23T06:50:59.394Z,26.97
2023-07-23T06:53:28.396Z,27.20
2023-07-23T06:56:04.229Z,27.35
2023-07-23T06:58:34.666Z,27.22
2023-07-23T07:01:03.446Z,27.05
2023-07-23T07:03:31.790Z,26.90
2023-07-23T07:06:01.345Z,26.74
2023-07-23T07:08:29.854Z,26.68
2023-07-23T07:11:03.504Z,26.75
2023-07-23T07:13:32.424Z,26.95
2023-07-23T07:16:00.964Z,27.21
2023-07-23T07:18:29.695Z,27.56
2023-07-23T07:21:01.890Z,27.89
2023-07-23T07:23:51.369Z,28.16
2023-07-23T07:26:19.501Z,28.43
2023-07-23T07:28:47.777Z,28.61
2023-07-23T07:31:16.700Z,28.76
2023-07-23T07:33:45.472Z,28.99
2023-07-23T07:36:13.914Z,29.18
2023-07-23T07:38:43.053Z,29.36
2023-07-23T07:41:11.230Z,29.40
2023-07-23T07:43:39.806Z,29.51
2023-07-23T07:46:09.803Z,29.63
2023-07-23T07:48:39.217Z,29.62
2023-07-23T07:51:08.559Z,29.55
2023-07-23T07:53:37.932Z,29.38
2023-07-23T07:56:07.030Z,29.28
2023-07-23T07:58:35.616Z,29.22
2023-07-23T08:01:04.100Z,29.18
2023-07-23T08:03:33.924Z,29.13
2023-07-23T08:06:02.704Z,29.18
2023-07-23T08:08:32.143Z,29.16
2023-07-23T08:11:02.241Z,29.08
2023-07-23T08:13:31.689Z,29.08
2023-07-23T08:16:01.066Z,29.08
2023-07-23T08:18:29.632Z,29.09
2023-07-23T08:20:58.960Z,29.12
2023-07-23T08:23:28.231Z,29.09
2023-07-23T08:26:00.380Z,29.07
2023-07-23T08:28:32.528Z,29.18
2023-07-23T08:31:01.877Z,29.27
2023-07-23T08:33:31.464Z,29.33
2023-07-23T08:36:01.447Z,29.32
2023-07-23T08:39:11.205Z,29.28
2023-07-23T08:42:03.186Z,29.13
2023-07-23T08:44:49.903Z,29.12
2023-07-23T08:47:22.093Z,29.12
2023-07-23T08:49:53.004Z,29.03
2023-07-23T08:52:21.801Z,28.85
2023-07-23T08:54:50.689Z,28.74
2023-07-23T08:57:19.067Z,28.60
2023-07-23T08:59:47.752Z,28.49
2023-07-23T09:02:16.884Z,28.45
2023-07-23T09:04:45.366Z,28.33
2023-07-23T09:07:14.122Z,28.30
2023-07-23T09:09:42.810Z,28.28
2023-07-23T09:12:10.969Z,28.25
2023-07-23T09:14:46.442Z,28.15
2023-07-23T09:17:18.650Z,28.13
2023-07-23T09:19:47.550Z,28.15
2023-07-23T09:22:18.191Z,28.08
2023-07-23T09:24:46.657Z,27.99
2023-07-23T09:27:15.336Z,27.99
2023-07-23T09:29:43.679Z,27.96
2023-07-23T09:32:25.502Z,27.91
2023-07-23T09:34:55.389Z,27.76
2023-07-23T09:37:23.744Z,27.59
2023-07-23T09:39:55.600Z,27.42
2023-07-23T09:42:24.419Z,27.20
2023-07-23T09:44:53.316Z,27.02
2023-07-23T09:47:25.893Z,26.99
2023-07-23T09:49:54.920Z,27.02
2023-07-23T09:52:24.300Z,27.16
2023-07-23T09:54:54.428Z,27.19
2023-07-23T09:57:23.410Z,27.25
2023-07-23T09:59:52.873Z,27.39
2023-07-23T10:02:23.467Z,27.42
2023-07-23T10:04:52.140Z,27.37
2023-07-23T10:07:21.705Z,27.28
2023-07-23T10:09:51.575Z,27.32
2023-07-23T10:12:21.576Z,27.39
2023-07-23T10:14:51.289Z,27.39
2023-07-23T10:17:20.202Z,27.39
2023-07-23T10:19:48.920Z,27.39
2023-07-23T10:22:17.658Z,27.33
2023-07-23T10:24:52.450Z,27.35
2023-07-23T10:27:21.120Z,27.53
2023-07-23T10:30:08.813Z,27.94
2023-07-23T10:32:37.317Z,28.41
2023-07-23T10:35:05.678Z,28.69
2023-07-23T10:37:34.260Z,29.04
2023-07-23T10:40:04.997Z,29.43
2023-07-23T10:42:39.359Z,29.84
2023-07-23T10:45:23.679Z,30.17
2023-07-23T10:47:53.322Z,30.54
2023-07-23T10:50:22.473Z,30.91
2023-07-23T10:52:51.912Z,31.21
2023-07-23T10:55:34.121Z,31.48
2023-07-23T10:58:05.121Z,31.67
2023-07-23T11:00:33.622Z,31.78
2023-07-23T11:03:02.374Z,31.96
2023-07-23T11:05:39.471Z,32.23
2023-07-23T11:08:21.507Z,32.37
2023-07-23T11:11:01.414Z,32.58
2023-07-23T11:13:35.515Z,32.88
2023-07-23T11:16:04.591Z,33.19
2023-07-23T11:18:34.299Z,33.40
2023-07-23T11:21:07.368Z,33.58
2023-07-23T11:23:37.100Z,33.66
2023-07-23T11:26:05.447Z,33.69
2023-07-23T11:28:36.488Z,33.35
2023-07-23T11:31:05.215Z,33.35
2023-07-23T11:33:34.863Z,33.41
2023-07-23T11:36:03.370Z,33.31
2023-07-23T11:38:34.723Z,33.41
2023-07-23T11:41:04.336Z,33.63
2023-07-23T11:43:34.142Z,33.77
2023-07-23T11:46:02.731Z,33.83
2023-07-23T11:48:32.445Z,33.85
2023-07-23T11:51:40.657Z,33.80
2023-07-23T11:54:11.907Z,33.79
2023-07-23T11:57:20.221Z,33.90
2023-07-23T12:00:28.436Z,34.04
2023-07-23T12:02:58.525Z,34.36
2023-07-23T12:05:26.997Z,34.69
2023-07-23T12:07:55.427Z,35.08
2023-07-23T12:10:26.591Z,35.58
2023-07-23T12:12:55.870Z,35.80
2023-07-23T12:15:24.319Z,35.95
2023-07-23T12:17:54.033Z,36.12
2023-07-23T12:20:25.005Z,36.04
2023-07-23T12:22:54.307Z,35.82
2023-07-23T12:25:24.396Z,35.72
2023-07-23T12:27:52.824Z,35.49
2023-07-23T12:30:21.814Z,35.29
2023-07-23T12:32:50.634Z,35.02
2023-07-23T12:35:19.178Z,34.99
2023-07-23T12:37:47.667Z,34.92
2023-07-23T12:40:18.512Z,34.77
2023-07-23T12:42:46.781Z,34.52
2023-07-23T12:45:15.216Z,34.26
2023-07-23T12:47:43.994Z,34.34
2023-07-23T12:50:12.433Z,34.25
2023-07-23T12:52:41.845Z,34.16
2023-07-23T12:55:10.515Z,34.00
2023-07-23T12:57:39.835Z,33.91
2023-07-23T13:00:08.727Z,33.95
2023-07-23T13:02:37.570Z,33.95
2023-07-23T13:05:06.018Z,33.76
2023-07-23T13:07:34.340Z,33.69
2023-07-23T13:10:04.194Z,33.68
2023-07-23T13:12:32.498Z,33.94
2023-07-23T13:15:00.802Z,34.06
2023-07-23T13:17:29.818Z,34.15
2023-07-23T13:19:58.221Z,34.33
2023-07-23T13:22:26.631Z,34.56
2023-07-23T13:24:55.213Z,34.60
2023-07-23T13:28:04.329Z,34.58
2023-07-23T13:31:15.803Z,34.66
2023-07-23T13:33:44.302Z,34.94
2023-07-23T13:36:12.884Z,34.94
2023-07-23T13:38:41.679Z,35.00
2023-07-23T13:41:10.261Z,34.91
2023-07-23T13:43:38.693Z,34.92
2023-07-23T13:46:07.270Z,34.96
2023-07-23T13:48:35.712Z,34.87
2023-07-23T13:51:44.232Z,34.92
2023-07-23T13:54:12.614Z,34.60
2023-07-23T13:56:41.266Z,34.40
2023-07-23T13:59:09.947Z,34.50
2023-07-23T14:01:38.168Z,34.57
2023-07-23T14:04:06.960Z,34.83
2023-07-23T14:06:35.660Z,34.97
2023-07-23T14:09:41.000Z,35.04
2023-07-23T14:12:33.650Z,35.05
2023-07-23T14:15:02.429Z,35.01
2023-07-23T14:18:10.760Z,35.02
2023-07-23T14:20:39.370Z,34.89
2023-07-23T14:23:08.026Z,34.91
2023-07-23T14:25:36.558Z,34.85
2023-07-23T14:28:05.291Z,34.75
2023-07-23T14:30:33.790Z,34.80
2023-07-23T14:33:02.466Z,34.82
2023-07-23T14:35:31.854Z,34.73
2023-07-23T14:38:00.876Z,34.59
2023-07-23T14:40:29.762Z,34.66
2023-07-23T14:42:58.034Z,34.85
2023-07-23T14:45:26.526Z,34.96
2023-07-23T14:47:55.057Z,34.94
2023-07-23T14:50:23.546Z,35.00
2023-07-23T14:52:52.493Z,34.94
2023-07-23T14:55:22.408Z,34.79
2023-07-23T14:57:50.777Z,34.87
2023-07-23T15:00:19.138Z,34.58
2023-07-23T15:02:47.602Z,34.41
2023-07-23T15:05:16.284Z,34.33
2023-07-23T15:07:45.119Z,34.34
2023-07-23T15:10:13.605Z,34.25
2023-07-23T15:12:42.338Z,34.22
2023-07-23T15:15:11.031Z,34.29
2023-07-23T15:17:39.854Z,34.35
2023-07-23T15:20:08.875Z,34.39
2023-07-23T15:22:37.496Z,34.44
2023-07-23T15:25:06.249Z,34.49
2023-07-23T15:27:36.156Z,34.45
2023-07-23T15:30:07.477Z,34.58
2023-07-23T15:32:35.879Z,34.74
2023-07-23T15:35:04.212Z,34.65
2023-07-23T15:37:32.849Z,34.63
2023-07-23T15:40:01.433Z,34.66
2023-07-23T15:42:29.916Z,34.73
2023-07-23T15:44:58.345Z,34.80
2023-07-23T15:47:26.707Z,34.86
2023-07-23T15:49:55.379Z,34.92
2023-07-23T15:52:24.052Z,34.97
2023-07-23T15:54:52.642Z,34.97
2023-07-23T15:57:21.833Z,35.02
2023-07-23T15:59:50.732Z,35.06
2023-07-23T16:02:19.253Z,35.16
2023-07-23T16:04:47.903Z,35.30
2023-07-23T16:07:16.418Z,35.29
2023-07-23T16:09:44.879Z,35.42
2023-07-23T16:12:13.194Z,35.39
2023-07-23T16:14:41.732Z,35.43
2023-07-23T16:17:10.019Z,35.57
2023-07-23T16:19:38.244Z,35.60
2023-07-23T16:22:06.974Z,35.62
2023-07-23T16:24:35.470Z,35.65
2023-07-23T16:27:04.245Z,35.70
2023-07-23T16:29:32.558Z,35.60
2023-07-23T16:32:01.163Z,35.45
2023-07-23T16:34:29.757Z,35.35
2023-07-23T16:36:59.666Z,35.53
2023-07-23T16:39:28.553Z,35.24
2023-07-23T16:41:56.950Z,35.11
2023-07-23T16:44:27.767Z,35.02
2023-07-23T16:46:55.981Z,35.01
2023-07-23T16:50:04.172Z,34.74
2023-07-23T16:53:12.111Z,34.57
2023-07-23T16:56:20.545Z,34.49
2023-07-23T16:58:56.828Z,34.30
2023-07-23T17:01:37.220Z,34.09
2023-07-23T17:04:12.824Z,33.82
2023-07-23T17:06:52.463Z,33.49
2023-07-23T17:09:25.105Z,33.17
2023-07-23T17:12:03.004Z,32.92
2023-07-23T17:15:16.856Z,32.64
2023-07-23T17:17:45.948Z,32.31
2023-07-23T17:20:14.434Z,32.02
2023-07-23T17:22:42.964Z,31.74
2023-07-23T17:25:11.320Z,31.49
2023-07-23T17:27:39.855Z,31.26
2023-07-23T17:30:14.132Z,31.03
2023-07-23T17:32:43.643Z,30.78
2023-07-23T17:35:12.203Z,30.52
2023-07-23T17:37:40.548Z,30.30
2023-07-23T17:40:09.563Z,30.08
2023-07-23T17:42:37.914Z,29.89
2023-07-23T17:45:26.737Z,29.63
2023-07-23T17:48:14.900Z,29.31
2023-07-23T17:51:03.295Z,29.00
2023-07-23T17:53:51.497Z,28.70
2023-07-23T17:56:39.998Z,28.38
2023-07-23T17:59:53.543Z,28.08
2023-07-23T18:02:41.972Z,27.76
2023-07-23T18:05:30.139Z,27.49
2023-07-23T18:08:18.407Z,27.22
2023-07-23T18:11:06.880Z,26.98
2023-07-23T18:13:35.566Z,26.73
2023-07-23T18:16:04.620Z,26.51
2023-07-23T18:18:32.986Z,26.32
2023-07-23T18:21:01.371Z,26.11
2023-07-23T18:23:31.342Z,25.93
2023-07-23T18:26:05.576Z,25.75
2023-07-23T18:28:35.228Z,25.56
2023-07-23T18:31:07.014Z,25.39
2023-07-23T18:33:38.618Z,25.23
2023-07-23T18:36:06.871Z,25.05
2023-07-23T18:38:35.259Z,24.89
2023-07-23T18:41:43.605Z,24.75
2023-07-23T18:47:44.529Z,24.43
2023-07-23T18:50:12.952Z,24.31
2023-07-23T18:52:41.390Z,24.20
2023-07-23T18:55:10.178Z,24.09
2023-07-23T18:57:38.565Z,24.01
2023-07-23T19:00:07.862Z,23.91
2023-07-23T19:02:56.540Z,23.82
2023-07-23T19:05:44.973Z,23.71
2023-07-23T19:08:33.325Z,23.61
2023-07-23T19:11:21.576Z,23.50
2023-07-23T19:14:10.227Z,23.42
2023-07-23T19:16:58.300Z,23.32
2023-07-23T19:20:12.133Z,23.24
2023-07-23T19:23:02.200Z,23.14
2023-07-23T19:25:52.186Z,23.05
2023-07-23T19:28:40.381Z,22.99
2023-07-23T19:31:09.351Z,22.92
2023-07-23T19:33:37.805Z,22.86
2023-07-23T19:36:06.392Z,22.78
2023-07-23T19:38:34.991Z,22.70
2023-07-23T19:41:03.533Z,22.64
2023-07-23T19:43:31.852Z,22.59
2023-07-23T19:46:00.333Z,22.52
2023-07-23T19:48:29.011Z,22.45
2023-07-23T19:50:57.600Z,22.39
2023-07-23T19:53:27.639Z,22.33
2023-07-23T19:55:56.093Z,22.27
2023-07-23T19:58:24.701Z,22.21
2023-07-23T20:00:53.749Z,22.14
2023-07-23T20:03:22.705Z,22.08
2023-07-23T20:05:53.514Z,22.02
2023-07-23T20:08:21.808Z,21.96
2023-07-23T20:10:50.299Z,21.91
2023-07-23T20:13:18.757Z,21.86
2023-07-23T20:15:48.789Z,21.82
2023-07-23T20:18:17.052Z,21.79
2023-07-23T20:20:48.174Z,21.76
2023-07-23T20:23:17.112Z,21.73
2023-07-23T20:25:54.935Z,21.70
2023-07-23T20:28:23.234Z,21.66
2023-07-23T20:30:51.670Z,21.64
2023-07-23T20:33:20.277Z,21.60
2023-07-23T20:35:48.728Z,21.58
2023-07-23T20:38:17.481Z,21.54
2023-07-23T20:40:46.602Z,21.49
2023-07-23T20:43:15.062Z,21.43
2023-07-23T20:45:43.465Z,21.38
2023-07-23T20:48:12.057Z,21.32
2023-07-23T20:50:40.425Z,21.27
2023-07-23T20:53:09.024Z,21.24
2023-07-23T20:55:37.871Z,21.23
2023-07-23T20:58:06.437Z,21.21
2023-07-23T21:00:35.055Z,21.20
2023-07-23T21:03:04.022Z,21.20
2023-07-23T21:05:32.760Z,21.18
2023-07-23T21:08:01.253Z,21.19
2023-07-23T21:10:30.038Z,21.19
2023-07-23T21:12:58.634Z,21.18
2023-07-23T21:15:26.913Z,21.14
2023-07-23T21:17:55.401Z,21.09
2023-07-23T21:20:24.814Z,20.99
2023-07-23T21:22:53.268Z,20.88
2023-07-23T21:25:21.697Z,20.78
2023-07-23T21:27:50.522Z,20.70
2023-07-23T21:30:19.221Z,20.65
2023-07-23T21:32:47.563Z,20.60
2023-07-23T21:35:18.795Z,20.55
2023-07-23T21:37:47.233Z,20.51
2023-07-23T21:40:15.718Z,20.49
2023-07-23T21:42:44.154Z,20.46
2023-07-23T21:45:12.657Z,20.43
2023-07-23T21:47:41.062Z,20.43
2023-07-23T21:50:10.053Z,20.42
2023-07-23T21:52:38.540Z,20.43
2023-07-23T21:55:07.431Z,20.45
2023-07-23T21:57:36.123Z,20.45
2023-07-23T22:00:05.639Z,20.46
2023-07-23T22:02:35.270Z,20.46
2023-07-23T22:05:05.622Z,20.46
2023-07-23T22:07:34.044Z,20.47
2023-07-23T22:10:02.524Z,20.47
2023-07-23T22:12:31.212Z,20.46
2023-07-23T22:14:59.640Z,20.43
2023-07-23T22:17:28.162Z,20.42
2023-07-23T22:19:57.189Z,20.40
2023-07-23T22:22:25.759Z,20.38
2023-07-23T22:24:54.317Z,20.36
2023-07-23T22:27:22.923Z,20.31
2023-07-23T22:29:51.405Z,20.25
2023-07-23T22:32:19.973Z,20.18
2023-07-23T22:34:48.677Z,20.11
2023-07-23T22:37:17.062Z,20.05
2023-07-23T22:39:45.849Z,20.00
2023-07-23T22:42:14.235Z,19.98
2023-07-23T22:44:47.318Z,19.92
2023-07-23T22:47:15.673Z,19.86
2023-07-23T22:49:43.835Z,19.80
2023-07-23T22:52:14.031Z,19.77
2023-07-23T22:54:42.456Z,19.74
2023-07-23T22:57:10.814Z,19.68
2023-07-23T22:59:44.433Z,19.63
2023-07-23T23:02:13.535Z,19.60
2023-07-23T23:04:41.821Z,19.57
2023-07-23T23:07:10.085Z,19.53
2023-07-23T23:09:38.370Z,19.52
2023-07-23T23:12:06.878Z,19.49
2023-07-23T23:14:35.359Z,19.47
2023-07-23T23:17:04.810Z,19.46
2023-07-23T23:19:33.505Z,19.45
2023-07-23T23:22:01.907Z,19.42
2023-07-23T23:24:30.740Z,19.40
2023-07-23T23:26:58.964Z,19.38
2023-07-23T23:29:27.381Z,19.38
2023-07-23T23:31:56.068Z,19.38
2023-07-23T23:34:24.551Z,19.37
2023-07-23T23:36:53.198Z,19.36
2023-07-23T23:39:21.522Z,19.35
2023-07-23T23:41:50.563Z,19.36
2023-07-23T23:44:18.947Z,19.37
2023-07-23T23:46:47.254Z,19.39
2023-07-23T23:49:16.002Z,19.40
2023-07-23T23:51:44.279Z,19.41
2023-07-23T23:54:12.722Z,19.41
2023-07-23T23:56:48.715Z,19.41
2023-07-23T23:59:24.544Z,19.43
